Gorno-Altaysk, Russia
Current Conditions -  °F | °C
As of 2:30 AM on Friday 24 Oct 2014 (Local Time) from UNBB Reporting Station
Broken Clouds Broken Clouds  
Wind Chill: 36°   Ceiling: 10000
Heat Index: 39°   Visibility: 6mi
Dew Point: 37°   Wind: 4mph
Humidity: 93%   Direction: NA
Pressure: 29.77"   Gusts: NA
Location:  51.96°N, 85.96°E
Report Text: UNBB 231930Z VRB02MPS 9999 SCT040 BKN100 04/03 Q1008 NOSIG RMKQFE734/0978 24CLRD66
Loading
Personal Weather Stations






























Interactive Weather Map New forecast layout! Learn more

10-Day Weather Forecast

Advertisements
Track Severe Weather on mobile